sensor_id;sensor_type;location;lat;lon;timestamp;temperature;humidity
70986;DHT22;58645;43.068;25.610;2022-11-02T00:01:26;10.30;99.90
70986;DHT22;58645;43.068;25.610;2022-11-02T00:03:52;10.30;99.90
70986;DHT22;58645;43.068;25.610;2022-11-02T00:06:18;10.20;99.90
70986;DHT22;58645;43.068;25.610;2022-11-02T00:08:44;10.20;99.90
70986;DHT22;58645;43.068;25.610;2022-11-02T00:11:10;10.20;99.90
70986;DHT22;58645;43.068;25.610;2022-11-02T00:13:35;10.30;99.90
70986;DHT22;58645;43.068;25.610;2022-11-02T00:16:02;10.30;99.90
70986;DHT22;58645;43.068;25.610;2022-11-02T00:18:29;10.30;99.90
70986;DHT22;58645;43.068;25.610;2022-11-02T00:20:55;10.30;99.90
70986;DHT22;58645;43.068;25.610;2022-11-02T00:23:22;10.20;99.90
70986;DHT22;58645;43.068;25.610;2022-11-02T00:25:49;10.20;99.90
70986;DHT22;58645;43.068;25.610;2022-11-02T00:28:16;10.20;99.90
70986;DHT22;58645;43.068;25.610;2022-11-02T00:30:43;10.20;99.90
70986;DHT22;58645;43.068;25.610;2022-11-02T00:33:09;10.20;99.90
70986;DHT22;58645;43.068;25.610;2022-11-02T00:35:35;10.20;99.90
70986;DHT22;58645;43.068;25.610;2022-11-02T00:38:01;10.20;99.90
70986;DHT22;58645;43.068;25.610;2022-11-02T00:40:27;10.10;99.90
70986;DHT22;58645;43.068;25.610;2022-11-02T00:42:53;10.10;99.90
70986;DHT22;58645;43.068;25.610;2022-11-02T00:45:19;10.10;99.90
70986;DHT22;58645;43.068;25.610;2022-11-02T00:47:44;10.10;99.90
70986;DHT22;58645;43.068;25.610;2022-11-02T00:50:10;10.00;99.90
70986;DHT22;58645;43.068;25.610;2022-11-02T00:52:38;10.00;99.90
70986;DHT22;58645;43.068;25.610;2022-11-02T00:55:05;9.90;99.90
70986;DHT22;58645;43.068;25.610;2022-11-02T00:57:31;9.90;99.90
70986;DHT22;58645;43.068;25.610;2022-11-02T00:59:57;9.90;99.90
70986;DHT22;58645;43.068;25.610;2022-11-02T01:02:22;9.90;99.90
70986;DHT22;58645;43.068;25.610;2022-11-02T01:04:48;9.80;99.90
70986;DHT22;58645;43.068;25.610;2022-11-02T01:07:14;9.70;99.90
70986;DHT22;58645;43.068;25.610;2022-11-02T01:09:39;9.70;99.90
70986;DHT22;58645;43.068;25.610;2022-11-02T01:12:05;9.70;99.90
70986;DHT22;58645;43.068;25.610;2022-11-02T01:14:31;9.70;99.90
70986;DHT22;58645;43.068;25.610;2022-11-02T01:16:57;9.70;99.90
70986;DHT22;58645;43.068;25.610;2022-11-02T01:19:24;9.60;99.90
70986;DHT22;58645;43.068;25.610;2022-11-02T01:21:49;9.60;99.90
70986;DHT22;58645;43.068;25.610;2022-11-02T01:24:15;9.50;99.90
70986;DHT22;58645;43.068;25.610;2022-11-02T01:26:41;9.50;99.90
70986;DHT22;58645;43.068;25.610;2022-11-02T01:29:07;9.50;99.90
70986;DHT22;58645;43.068;25.610;2022-11-02T01:31:33;9.40;99.90
70986;DHT22;58645;43.068;25.610;2022-11-02T01:33:59;9.40;99.90
70986;DHT22;58645;43.068;25.610;2022-11-02T01:36:25;9.40;99.90
70986;DHT22;58645;43.068;25.610;2022-11-02T01:38:51;9.30;99.90
70986;DHT22;58645;43.068;25.610;2022-11-02T01:41:16;9.30;99.90
70986;DHT22;58645;43.068;25.610;2022-11-02T01:43:48;9.30;99.90
70986;DHT22;58645;43.068;25.610;2022-11-02T01:46:34;9.30;99.90
70986;DHT22;58645;43.068;25.610;2022-11-02T01:49:05;9.30;99.90
70986;DHT22;58645;43.068;25.610;2022-11-02T01:52:20;9.30;99.90
70986;DHT22;58645;43.068;25.610;2022-11-02T01:54:29;9.30;99.90
70986;DHT22;58645;43.068;25.610;2022-11-02T01:56:59;9.30;99.90
70986;DHT22;58645;43.068;25.610;2022-11-02T01:59:39;9.30;99.90
70986;DHT22;58645;43.068;25.610;2022-11-02T02:02:13;9.20;99.90
70986;DHT22;58645;43.068;25.610;2022-11-02T02:04:40;9.20;99.90
70986;DHT22;58645;43.068;25.610;2022-11-02T02:07:07;9.20;99.90
70986;DHT22;58645;43.068;25.610;2022-11-02T02:09:33;9.10;99.90
70986;DHT22;58645;43.068;25.610;2022-11-02T02:12:00;9.10;99.90
70986;DHT22;58645;43.068;25.610;2022-11-02T02:14:25;9.10;99.90
70986;DHT22;58645;43.068;25.610;2022-11-02T02:25:30;9.00;99.90
70986;DHT22;58645;43.068;25.610;2022-11-02T02:30:57;8.90;99.90
70986;DHT22;58645;43.068;25.610;2022-11-02T02:33:31;8.90;99.90
70986;DHT22;58645;43.068;25.610;2022-11-02T02:36:04;8.90;99.90
70986;DHT22;58645;43.068;25.610;2022-11-02T02:41:10;8.90;99.90
70986;DHT22;58645;43.068;25.610;2022-11-02T02:43:40;8.90;99.90
70986;DHT22;58645;43.068;25.610;2022-11-02T02:48:39;8.80;99.90
70986;DHT22;58645;43.068;25.610;2022-11-02T02:51:10;8.80;99.90
70986;DHT22;58645;43.068;25.610;2022-11-02T02:54:01;8.90;99.90
70986;DHT22;58645;43.068;25.610;2022-11-02T02:56:30;8.80;99.90
70986;DHT22;58645;43.068;25.610;2022-11-02T02:59:09;8.80;99.90
70986;DHT22;58645;43.068;25.610;2022-11-02T03:01:39;8.70;99.90
70986;DHT22;58645;43.068;25.610;2022-11-02T03:04:10;8.70;99.90
70986;DHT22;58645;43.068;25.610;2022-11-02T03:06:37;8.70;99.90
70986;DHT22;58645;43.068;25.610;2022-11-02T03:20:21;8.90;99.90
70986;DHT22;58645;43.068;25.610;2022-11-02T03:26:21;8.90;99.90
70986;DHT22;58645;43.068;25.610;2022-11-02T03:28:53;8.90;99.90
70986;DHT22;58645;43.068;25.610;2022-11-02T03:34:03;9.00;99.90
70986;DHT22;58645;43.068;25.610;2022-11-02T03:36:37;9.00;99.90
70986;DHT22;58645;43.068;25.610;2022-11-02T03:39:10;9.00;99.90
70986;DHT22;58645;43.068;25.610;2022-11-02T03:41:38;9.10;99.90
70986;DHT22;58645;43.068;25.610;2022-11-02T03:44:07;9.10;99.90
70986;DHT22;58645;43.068;25.610;2022-11-02T03:46:37;9.00;99.90
70986;DHT22;58645;43.068;25.610;2022-11-02T03:49:06;9.00;99.90
70986;DHT22;58645;43.068;25.610;2022-11-02T03:51:34;9.00;99.90
70986;DHT22;58645;43.068;25.610;2022-11-02T03:56:46;8.90;99.90
70986;DHT22;58645;43.068;25.610;2022-11-02T03:59:13;8.90;99.90
70986;DHT22;58645;43.068;25.610;2022-11-02T04:01:47;8.80;99.90
70986;DHT22;58645;43.068;25.610;2022-11-02T04:04:14;8.80;99.90
70986;DHT22;58645;43.068;25.610;2022-11-02T04:06:40;8.80;99.90
70986;DHT22;58645;43.068;25.610;2022-11-02T04:09:07;8.70;99.90
70986;DHT22;58645;43.068;25.610;2022-11-02T04:11:34;8.70;99.90
70986;DHT22;58645;43.068;25.610;2022-11-02T04:14:19;8.70;99.90
70986;DHT22;58645;43.068;25.610;2022-11-02T04:17:03;8.70;99.90
70986;DHT22;58645;43.068;25.610;2022-11-02T04:19:48;8.60;99.90
70986;DHT22;58645;43.068;25.610;2022-11-02T04:22:13;8.60;99.90
70986;DHT22;58645;43.068;25.610;2022-11-02T04:24:58;8.50;99.90
70986;DHT22;58645;43.068;25.610;2022-11-02T04:27:42;8.50;99.90
70986;DHT22;58645;43.068;25.610;2022-11-02T04:30:09;8.40;99.90
70986;DHT22;58645;43.068;25.610;2022-11-02T04:32:39;8.40;99.90
70986;DHT22;58645;43.068;25.610;2022-11-02T04:35:23;8.40;99.90
70986;DHT22;58645;43.068;25.610;2022-11-02T04:37:49;8.40;99.90
70986;DHT22;58645;43.068;25.610;2022-11-02T04:40:34;8.40;99.90
70986;DHT22;58645;43.068;25.610;2022-11-02T04:42:59;8.30;99.90
70986;DHT22;58645;43.068;25.610;2022-11-02T04:45:25;8.30;99.90
70986;DHT22;58645;43.068;25.610;2022-11-02T04:47:51;8.30;99.90
70986;DHT22;58645;43.068;25.610;2022-11-02T04:50:16;8.30;99.90
70986;DHT22;58645;43.068;25.610;2022-11-02T04:52:42;8.20;99.90
70986;DHT22;58645;43.068;25.610;2022-11-02T04:55:08;8.20;99.90
70986;DHT22;58645;43.068;25.610;2022-11-02T04:57:34;8.20;99.90
70986;DHT22;58645;43.068;25.610;2022-11-02T05:00:00;8.20;99.90
70986;DHT22;58645;43.068;25.610;2022-11-02T05:02:26;8.20;99.90
70986;DHT22;58645;43.068;25.610;2022-11-02T05:04:52;8.20;99.90
70986;DHT22;58645;43.068;25.610;2022-11-02T05:07:17;8.20;99.90
70986;DHT22;58645;43.068;25.610;2022-11-02T05:09:43;8.20;99.90
70986;DHT22;58645;43.068;25.610;2022-11-02T05:12:09;8.20;99.90
70986;DHT22;58645;43.068;25.610;2022-11-02T05:14:34;8.30;99.90
70986;DHT22;58645;43.068;25.610;2022-11-02T05:17:00;8.30;99.90
70986;DHT22;58645;43.068;25.610;2022-11-02T05:19:26;8.40;99.90
70986;DHT22;58645;43.068;25.610;2022-11-02T05:21:52;8.40;99.90
70986;DHT22;58645;43.068;25.610;2022-11-02T05:24:17;8.50;99.90
70986;DHT22;58645;43.068;25.610;2022-11-02T05:26:52;8.60;99.90
70986;DHT22;58645;43.068;25.610;2022-11-02T05:29:21;8.60;99.90
70986;DHT22;58645;43.068;25.610;2022-11-02T05:31:47;8.70;99.90
70986;DHT22;58645;43.068;25.610;2022-11-02T05:34:16;8.70;99.90
70986;DHT22;58645;43.068;25.610;2022-11-02T05:36:43;8.90;99.90
70986;DHT22;58645;43.068;25.610;2022-11-02T05:39:18;9.00;99.90
70986;DHT22;58645;43.068;25.610;2022-11-02T05:41:44;9.30;99.90
70986;DHT22;58645;43.068;25.610;2022-11-02T05:44:12;9.60;99.90
70986;DHT22;58645;43.068;25.610;2022-11-02T05:46:39;10.50;99.90
70986;DHT22;58645;43.068;25.610;2022-11-02T05:52:25;11.70;97.00
70986;DHT22;58645;43.068;25.610;2022-11-02T05:55:01;13.10;90.30
70986;DHT22;58645;43.068;25.610;2022-11-02T05:57:27;13.60;85.80
70986;DHT22;58645;43.068;25.610;2022-11-02T06:00:06;14.30;82.10
70986;DHT22;58645;43.068;25.610;2022-11-02T06:05:44;15.30;74.50
70986;DHT22;58645;43.068;25.610;2022-11-02T06:08:10;15.60;71.70
70986;DHT22;58645;43.068;25.610;2022-11-02T06:10:36;16.00;69.50
70986;DHT22;58645;43.068;25.610;2022-11-02T06:13:02;16.20;67.80
70986;DHT22;58645;43.068;25.610;2022-11-02T06:15:29;16.70;66.30
70986;DHT22;58645;43.068;25.610;2022-11-02T06:18:09;17.00;63.90
70986;DHT22;58645;43.068;25.610;2022-11-02T06:20:39;17.00;63.30
70986;DHT22;58645;43.068;25.610;2022-11-02T06:23:05;17.30;62.10
70986;DHT22;58645;43.068;25.610;2022-11-02T06:25:30;17.20;61.40
70986;DHT22;58645;43.068;25.610;2022-11-02T06:27:56;17.60;60.80
70986;DHT22;58645;43.068;25.610;2022-11-02T06:30:23;17.80;59.00
70986;DHT22;58645;43.068;25.610;2022-11-02T06:32:50;18.40;58.40
70986;DHT22;58645;43.068;25.610;2022-11-02T06:35:21;19.30;57.30
70986;DHT22;58645;43.068;25.610;2022-11-02T06:38:08;20.10;54.80
70986;DHT22;58645;43.068;25.610;2022-11-02T06:40:37;20.90;52.90
70986;DHT22;58645;43.068;25.610;2022-11-02T06:46:03;21.90;49.60
70986;DHT22;58645;43.068;25.610;2022-11-02T06:48:29;22.50;48.00
70986;DHT22;58645;43.068;25.610;2022-11-02T06:51:04;22.90;46.90
70986;DHT22;58645;43.068;25.610;2022-11-02T06:53:37;23.30;46.30
70986;DHT22;58645;43.068;25.610;2022-11-02T06:56:03;23.80;45.00
70986;DHT22;58645;43.068;25.610;2022-11-02T06:58:29;24.00;43.80
70986;DHT22;58645;43.068;25.610;2022-11-02T07:00:58;24.30;43.30
70986;DHT22;58645;43.068;25.610;2022-11-02T07:03:28;24.60;42.70
70986;DHT22;58645;43.068;25.610;2022-11-02T07:05:54;25.00;41.50
70986;DHT22;58645;43.068;25.610;2022-11-02T07:08:22;25.40;40.50
70986;DHT22;58645;43.068;25.610;2022-11-02T07:10:48;25.70;39.70
70986;DHT22;58645;43.068;25.610;2022-11-02T07:13:23;26.20;38.70
70986;DHT22;58645;43.068;25.610;2022-11-02T07:15:59;26.50;37.70
70986;DHT22;58645;43.068;25.610;2022-11-02T07:18:25;26.70;37.30
70986;DHT22;58645;43.068;25.610;2022-11-02T07:20:53;26.90;36.70
70986;DHT22;58645;43.068;25.610;2022-11-02T07:26:57;27.20;35.90
70986;DHT22;58645;43.068;25.610;2022-11-02T07:29:24;27.70;34.90
70986;DHT22;58645;43.068;25.610;2022-11-02T07:31:50;28.00;34.60
70986;DHT22;58645;43.068;25.610;2022-11-02T07:34:15;28.30;33.60
70986;DHT22;58645;43.068;25.610;2022-11-02T07:36:41;28.50;33.10
70986;DHT22;58645;43.068;25.610;2022-11-02T07:39:07;28.70;32.40
70986;DHT22;58645;43.068;25.610;2022-11-02T07:41:39;28.60;32.90
70986;DHT22;58645;43.068;25.610;2022-11-02T07:44:05;29.00;32.60
70986;DHT22;58645;43.068;25.610;2022-11-02T07:46:34;29.20;32.40
70986;DHT22;58645;43.068;25.610;2022-11-02T07:53:14;29.60;31.40
70986;DHT22;58645;43.068;25.610;2022-11-02T07:55:46;30.40;30.20
70986;DHT22;58645;43.068;25.610;2022-11-02T07:58:12;30.70;29.20
70986;DHT22;58645;43.068;25.610;2022-11-02T08:00:44;31.00;29.10
70986;DHT22;58645;43.068;25.610;2022-11-02T08:03:10;31.20;28.40
70986;DHT22;58645;43.068;25.610;2022-11-02T08:05:38;31.40;28.00
70986;DHT22;58645;43.068;25.610;2022-11-02T08:08:14;31.60;27.80
70986;DHT22;58645;43.068;25.610;2022-11-02T08:10:41;31.70;27.80
70986;DHT22;58645;43.068;25.610;2022-11-02T08:13:12;31.70;26.90
70986;DHT22;58645;43.068;25.610;2022-11-02T08:15:39;31.70;27.00
70986;DHT22;58645;43.068;25.610;2022-11-02T08:18:15;32.00;27.20
70986;DHT22;58645;43.068;25.610;2022-11-02T08:20:41;32.20;26.70
70986;DHT22;58645;43.068;25.610;2022-11-02T08:23:09;32.50;26.00
70986;DHT22;58645;43.068;25.610;2022-11-02T08:25:36;32.70;25.60
70986;DHT22;58645;43.068;25.610;2022-11-02T08:28:03;33.10;25.50
70986;DHT22;58645;43.068;25.610;2022-11-02T08:30:31;33.20;24.90
70986;DHT22;58645;43.068;25.610;2022-11-02T08:33:10;33.20;24.40
70986;DHT22;58645;43.068;25.610;2022-11-02T08:35:38;33.70;24.30
70986;DHT22;58645;43.068;25.610;2022-11-02T08:38:08;33.80;23.80
70986;DHT22;58645;43.068;25.610;2022-11-02T08:40:38;33.50;24.40
70986;DHT22;58645;43.068;25.610;2022-11-02T08:43:12;33.50;23.50
70986;DHT22;58645;43.068;25.610;2022-11-02T08:45:40;33.80;23.20
70986;DHT22;58645;43.068;25.610;2022-11-02T08:48:06;34.40;22.80
70986;DHT22;58645;43.068;25.610;2022-11-02T08:50:33;34.70;22.10
70986;DHT22;58645;43.068;25.610;2022-11-02T08:52:59;34.80;21.60
70986;DHT22;58645;43.068;25.610;2022-11-02T08:55:24;34.70;21.70
70986;DHT22;58645;43.068;25.610;2022-11-02T08:57:52;34.80;21.20
70986;DHT22;58645;43.068;25.610;2022-11-02T09:00:20;35.00;20.80
70986;DHT22;58645;43.068;25.610;2022-11-02T09:05:26;35.20;20.50
70986;DHT22;58645;43.068;25.610;2022-11-02T09:08:00;35.60;19.70
70986;DHT22;58645;43.068;25.610;2022-11-02T09:10:29;35.90;19.10
70986;DHT22;58645;43.068;25.610;2022-11-02T09:12:56;36.30;18.70
70986;DHT22;58645;43.068;25.610;2022-11-02T09:15:33;36.40;19.20
70986;DHT22;58645;43.068;25.610;2022-11-02T09:18:00;35.80;17.90
70986;DHT22;58645;43.068;25.610;2022-11-02T09:20:26;35.50;18.90
70986;DHT22;58645;43.068;25.610;2022-11-02T09:22:52;35.50;19.20
70986;DHT22;58645;43.068;25.610;2022-11-02T09:25:28;35.60;18.90
70986;DHT22;58645;43.068;25.610;2022-11-02T09:27:55;36.20;19.20
70986;DHT22;58645;43.068;25.610;2022-11-02T09:30:23;36.60;18.20
70986;DHT22;58645;43.068;25.610;2022-11-02T09:32:58;36.90;17.40
70986;DHT22;58645;43.068;25.610;2022-11-02T09:35:26;36.90;17.40
70986;DHT22;58645;43.068;25.610;2022-11-02T09:37:53;36.40;16.90
70986;DHT22;58645;43.068;25.610;2022-11-02T09:40:24;36.10;17.90
70986;DHT22;58645;43.068;25.610;2022-11-02T09:45:47;36.70;16.20
70986;DHT22;58645;43.068;25.610;2022-11-02T09:48:18;37.10;16.70
70986;DHT22;58645;43.068;25.610;2022-11-02T09:51:11;37.00;17.00
70986;DHT22;58645;43.068;25.610;2022-11-02T09:56:12;37.40;16.30
70986;DHT22;58645;43.068;25.610;2022-11-02T09:58:42;37.60;15.30
70986;DHT22;58645;43.068;25.610;2022-11-02T10:10:02;35.40;16.00
70986;DHT22;58645;43.068;25.610;2022-11-02T10:15:42;36.60;14.50
70986;DHT22;58645;43.068;25.610;2022-11-02T10:18:17;36.50;14.30
70986;DHT22;58645;43.068;25.610;2022-11-02T10:20:45;36.40;14.50
70986;DHT22;58645;43.068;25.610;2022-11-02T10:23:40;36.80;14.20
70986;DHT22;58645;43.068;25.610;2022-11-02T10:26:08;37.00;14.20
70986;DHT22;58645;43.068;25.610;2022-11-02T10:28:47;37.30;13.70
70986;DHT22;58645;43.068;25.610;2022-11-02T10:31:32;37.30;13.70
70986;DHT22;58645;43.068;25.610;2022-11-02T10:47:22;36.60;14.40
70986;DHT22;58645;43.068;25.610;2022-11-02T10:52:47;36.80;14.00
70986;DHT22;58645;43.068;25.610;2022-11-02T10:55:26;36.50;14.00
70986;DHT22;58645;43.068;25.610;2022-11-02T10:57:54;36.20;15.10
70986;DHT22;58645;43.068;25.610;2022-11-02T11:00:32;35.80;14.90
70986;DHT22;58645;43.068;25.610;2022-11-02T11:03:07;35.90;15.20
70986;DHT22;58645;43.068;25.610;2022-11-02T11:05:53;35.90;15.70
70986;DHT22;58645;43.068;25.610;2022-11-02T11:08:42;36.70;14.70
70986;DHT22;58645;43.068;25.610;2022-11-02T11:11:23;36.70;14.60
70986;DHT22;58645;43.068;25.610;2022-11-02T11:13:58;36.60;15.60
70986;DHT22;58645;43.068;25.610;2022-11-02T11:16:52;37.00;15.20
70986;DHT22;58645;43.068;25.610;2022-11-02T11:19:37;37.50;14.40
70986;DHT22;58645;43.068;25.610;2022-11-02T11:24:50;37.00;14.40
70986;DHT22;58645;43.068;25.610;2022-11-02T11:29:53;37.60;13.30
70986;DHT22;58645;43.068;25.610;2022-11-02T11:32:27;37.80;12.30
70986;DHT22;58645;43.068;25.610;2022-11-02T11:35:05;37.10;13.00
70986;DHT22;58645;43.068;25.610;2022-11-02T11:37:32;36.80;12.60
70986;DHT22;58645;43.068;25.610;2022-11-02T11:40:02;36.30;12.80
70986;DHT22;58645;43.068;25.610;2022-11-02T11:42:33;36.00;13.60
70986;DHT22;58645;43.068;25.610;2022-11-02T11:47:28;36.20;12.70
70986;DHT22;58645;43.068;25.610;2022-11-02T11:49:56;36.00;13.00
70986;DHT22;58645;43.068;25.610;2022-11-02T11:52:27;36.00;13.50
70986;DHT22;58645;43.068;25.610;2022-11-02T11:54:55;35.60;13.70
70986;DHT22;58645;43.068;25.610;2022-11-02T11:57:27;35.40;14.70
70986;DHT22;58645;43.068;25.610;2022-11-02T11:59:55;34.50;15.70
70986;DHT22;58645;43.068;25.610;2022-11-02T12:02:32;33.90;16.50
70986;DHT22;58645;43.068;25.610;2022-11-02T12:05:16;32.90;17.60
70986;DHT22;58645;43.068;25.610;2022-11-02T12:10:13;31.20;20.30
70986;DHT22;58645;43.068;25.610;2022-11-02T12:24:10;29.60;22.80
70986;DHT22;58645;43.068;25.610;2022-11-02T12:30:10;29.00;23.80
70986;DHT22;58645;43.068;25.610;2022-11-02T12:38:04;28.80;25.00
70986;DHT22;58645;43.068;25.610;2022-11-02T12:40:55;28.50;25.20
70986;DHT22;58645;43.068;25.610;2022-11-02T12:43:46;28.40;25.80
70986;DHT22;58645;43.068;25.610;2022-11-02T12:52:26;28.10;26.00
70986;DHT22;58645;43.068;25.610;2022-11-02T12:54:56;28.00;26.10
70986;DHT22;58645;43.068;25.610;2022-11-02T12:57:26;27.90;25.90
70986;DHT22;58645;43.068;25.610;2022-11-02T12:59:58;27.70;26.10
70986;DHT22;58645;43.068;25.610;2022-11-02T13:02:30;27.70;26.20
70986;DHT22;58645;43.068;25.610;2022-11-02T13:05:05;27.60;26.60
70986;DHT22;58645;43.068;25.610;2022-11-02T13:10:54;27.30;27.20
70986;DHT22;58645;43.068;25.610;2022-11-02T13:16:00;27.10;28.10
70986;DHT22;58645;43.068;25.610;2022-11-02T13:18:30;27.10;28.20
70986;DHT22;58645;43.068;25.610;2022-11-02T13:21:01;27.00;28.50
70986;DHT22;58645;43.068;25.610;2022-11-02T13:23:44;26.90;27.60
70986;DHT22;58645;43.068;25.610;2022-11-02T13:26:27;26.80;27.70
70986;DHT22;58645;43.068;25.610;2022-11-02T13:28:59;26.70;27.60
70986;DHT22;58645;43.068;25.610;2022-11-02T13:31:36;26.70;27.50
70986;DHT22;58645;43.068;25.610;2022-11-02T13:34:09;26.60;27.20
70986;DHT22;58645;43.068;25.610;2022-11-02T13:36:40;26.50;26.40
70986;DHT22;58645;43.068;25.610;2022-11-02T13:39:13;26.40;25.90
70986;DHT22;58645;43.068;25.610;2022-11-02T13:42:00;26.40;26.30
70986;DHT22;58645;43.068;25.610;2022-11-02T13:50:19;26.10;26.70
70986;DHT22;58645;43.068;25.610;2022-11-02T13:52:55;26.00;27.00
70986;DHT22;58645;43.068;25.610;2022-11-02T13:55:27;26.00;26.50
70986;DHT22;58645;43.068;25.610;2022-11-02T13:57:58;25.90;26.00
70986;DHT22;58645;43.068;25.610;2022-11-02T14:00:40;25.90;26.40
70986;DHT22;58645;43.068;25.610;2022-11-02T14:05:54;25.80;26.70
70986;DHT22;58645;43.068;25.610;2022-11-02T14:08:32;25.70;26.90
70986;DHT22;58645;43.068;25.610;2022-11-02T14:19:22;25.40;28.50
70986;DHT22;58645;43.068;25.610;2022-11-02T14:27:06;25.10;29.20
70986;DHT22;58645;43.068;25.610;2022-11-02T14:29:53;25.00;29.20
70986;DHT22;58645;43.068;25.610;2022-11-02T14:32:30;25.00;29.50
70986;DHT22;58645;43.068;25.610;2022-11-02T14:35:24;24.80;29.50
70986;DHT22;58645;43.068;25.610;2022-11-02T14:40:47;24.70;30.00
70986;DHT22;58645;43.068;25.610;2022-11-02T14:46:34;24.50;30.60
70986;DHT22;58645;43.068;25.610;2022-11-02T14:49:03;24.40;30.90
70986;DHT22;58645;43.068;25.610;2022-11-02T14:51:32;24.20;31.30
70986;DHT22;58645;43.068;25.610;2022-11-02T14:54:13;24.10;31.70
70986;DHT22;58645;43.068;25.610;2022-11-02T14:59:23;23.80;32.50
70986;DHT22;58645;43.068;25.610;2022-11-02T15:01:58;23.70;33.10
70986;DHT22;58645;43.068;25.610;2022-11-02T15:04:25;23.50;33.30
70986;DHT22;58645;43.068;25.610;2022-11-02T15:06:53;23.30;33.30
70986;DHT22;58645;43.068;25.610;2022-11-02T15:22:48;22.50;35.80
70986;DHT22;58645;43.068;25.610;2022-11-02T15:25:26;22.40;36.00
70986;DHT22;58645;43.068;25.610;2022-11-02T15:28:03;22.20;36.10
70986;DHT22;58645;43.068;25.610;2022-11-02T15:30:30;22.10;36.40
70986;DHT22;58645;43.068;25.610;2022-11-02T15:33:05;22.00;36.50
70986;DHT22;58645;43.068;25.610;2022-11-02T15:35:33;21.90;36.80
70986;DHT22;58645;43.068;25.610;2022-11-02T15:38:02;21.70;37.10
70986;DHT22;58645;43.068;25.610;2022-11-02T15:40:46;21.70;37.50
70986;DHT22;58645;43.068;25.610;2022-11-02T15:43:41;21.50;37.50
70986;DHT22;58645;43.068;25.610;2022-11-02T15:46:22;21.40;37.80
70986;DHT22;58645;43.068;25.610;2022-11-02T15:51:32;21.20;38.30
70986;DHT22;58645;43.068;25.610;2022-11-02T15:54:31;21.10;38.60
70986;DHT22;58645;43.068;25.610;2022-11-02T15:57:38;21.00;38.80
70986;DHT22;58645;43.068;25.610;2022-11-02T16:00:21;20.90;39.10
70986;DHT22;58645;43.068;25.610;2022-11-02T16:03:02;20.70;39.30
70986;DHT22;58645;43.068;25.610;2022-11-02T16:05:41;20.60;39.40
70986;DHT22;58645;43.068;25.610;2022-11-02T16:08:32;20.50;39.60
70986;DHT22;58645;43.068;25.610;2022-11-02T16:13:34;20.30;40.00
70986;DHT22;58645;43.068;25.610;2022-11-02T16:16:20;20.30;40.00
70986;DHT22;58645;43.068;25.610;2022-11-02T16:18:51;20.20;40.10
70986;DHT22;58645;43.068;25.610;2022-11-02T16:21:19;20.10;40.30
70986;DHT22;58645;43.068;25.610;2022-11-02T16:23:48;20.10;40.50
70986;DHT22;58645;43.068;25.610;2022-11-02T16:26:21;20.00;40.70
70986;DHT22;58645;43.068;25.610;2022-11-02T16:28:53;19.90;40.90
70986;DHT22;58645;43.068;25.610;2022-11-02T16:31:24;19.90;40.80
70986;DHT22;58645;43.068;25.610;2022-11-02T16:34:00;19.90;40.90
70986;DHT22;58645;43.068;25.610;2022-11-02T16:36:33;19.80;40.90
70986;DHT22;58645;43.068;25.610;2022-11-02T16:39:06;19.80;41.00
70986;DHT22;58645;43.068;25.610;2022-11-02T16:41:34;19.70;41.20
70986;DHT22;58645;43.068;25.610;2022-11-02T16:44:15;19.70;41.40
70986;DHT22;58645;43.068;25.610;2022-11-02T16:46:48;19.60;41.50
70986;DHT22;58645;43.068;25.610;2022-11-02T16:49:21;19.60;41.80
70986;DHT22;58645;43.068;25.610;2022-11-02T16:51:56;19.50;41.90
70986;DHT22;58645;43.068;25.610;2022-11-02T16:54:28;19.40;42.20
70986;DHT22;58645;43.068;25.610;2022-11-02T16:59:31;19.30;43.30
70986;DHT22;58645;43.068;25.610;2022-11-02T17:02:00;19.20;43.60
70986;DHT22;58645;43.068;25.610;2022-11-02T17:04:31;19.10;43.80
70986;DHT22;58645;43.068;25.610;2022-11-02T17:07:10;19.00;43.90
70986;DHT22;58645;43.068;25.610;2022-11-02T17:09:37;19.00;44.40
70986;DHT22;58645;43.068;25.610;2022-11-02T17:12:06;18.90;44.40
70986;DHT22;58645;43.068;25.610;2022-11-02T17:14:34;18.80;44.70
70986;DHT22;58645;43.068;25.610;2022-11-02T17:22:53;18.50;45.70
70986;DHT22;58645;43.068;25.610;2022-11-02T17:25:25;18.40;46.00
70986;DHT22;58645;43.068;25.610;2022-11-02T17:27:53;18.20;46.30
70986;DHT22;58645;43.068;25.610;2022-11-02T17:33:12;18.10;46.90
70986;DHT22;58645;43.068;25.610;2022-11-02T17:35:48;18.00;47.20
70986;DHT22;58645;43.068;25.610;2022-11-02T17:38:15;18.00;47.30
70986;DHT22;58645;43.068;25.610;2022-11-02T17:40:40;17.90;47.40
70986;DHT22;58645;43.068;25.610;2022-11-02T17:43:07;17.80;47.40
70986;DHT22;58645;43.068;25.610;2022-11-02T17:45:34;17.80;47.50
70986;DHT22;58645;43.068;25.610;2022-11-02T17:48:08;17.60;47.90
70986;DHT22;58645;43.068;25.610;2022-11-02T17:50:36;17.50;48.30
70986;DHT22;58645;43.068;25.610;2022-11-02T17:53:03;17.50;48.50
70986;DHT22;58645;43.068;25.610;2022-11-02T17:55:32;17.40;48.40
70986;DHT22;58645;43.068;25.610;2022-11-02T17:57:58;17.30;48.40
70986;DHT22;58645;43.068;25.610;2022-11-02T18:00:25;17.30;48.40
70986;DHT22;58645;43.068;25.610;2022-11-02T18:02:57;17.30;48.40
70986;DHT22;58645;43.068;25.610;2022-11-02T18:05:27;17.30;48.80
70986;DHT22;58645;43.068;25.610;2022-11-02T18:07:54;17.20;48.90
70986;DHT22;58645;43.068;25.610;2022-11-02T18:10:23;17.20;49.20
70986;DHT22;58645;43.068;25.610;2022-11-02T18:12:49;17.20;49.10
70986;DHT22;58645;43.068;25.610;2022-11-02T18:15:25;17.20;49.00
70986;DHT22;58645;43.068;25.610;2022-11-02T18:17:52;17.30;48.90
70986;DHT22;58645;43.068;25.610;2022-11-02T18:20:18;17.30;48.80
70986;DHT22;58645;43.068;25.610;2022-11-02T18:22:44;17.30;48.50
70986;DHT22;58645;43.068;25.610;2022-11-02T18:25:13;17.30;48.10
70986;DHT22;58645;43.068;25.610;2022-11-02T18:27:39;17.40;47.90
70986;DHT22;58645;43.068;25.610;2022-11-02T18:30:06;17.40;48.10
70986;DHT22;58645;43.068;25.610;2022-11-02T18:32:36;17.30;49.60
70986;DHT22;58645;43.068;25.610;2022-11-02T18:35:03;17.20;49.50
70986;DHT22;58645;43.068;25.610;2022-11-02T18:37:29;17.10;50.20
70986;DHT22;58645;43.068;25.610;2022-11-02T18:39:57;16.90;50.30
70986;DHT22;58645;43.068;25.610;2022-11-02T18:42:22;16.90;51.00
70986;DHT22;58645;43.068;25.610;2022-11-02T18:44:48;16.70;51.50
70986;DHT22;58645;43.068;25.610;2022-11-02T18:47:14;16.60;52.10
70986;DHT22;58645;43.068;25.610;2022-11-02T18:49:40;16.50;52.50
70986;DHT22;58645;43.068;25.610;2022-11-02T18:52:06;16.40;52.80
70986;DHT22;58645;43.068;25.610;2022-11-02T18:54:32;16.30;53.50
70986;DHT22;58645;43.068;25.610;2022-11-02T18:56:57;16.30;54.00